Time;durP1;ratioP1;P1;durP2;ratioP2;P2;SDS_P1;SDS_P2;PMS_P1;PMS_P2;Temp;Humidity;BMP_temperature;BMP_pressure;BME280_temperature;BME280_humidity;BME280_pressure;Samples;Min_cycle;Max_cycle;Signal;HPM_P1;HPM_P2
2024/04/13 00:00:23;;;;;;;5.37;4.70;;;;;;;;;;5413829;26;20221;-79
2024/04/13 00:02:49;;;;;;;7.53;5.00;;;;;;;;;;5413325;26;20529;-79
2024/04/13 00:05:15;;;;;;;8.23;4.60;;;;;;;;;;5413630;26;20316;-78
2024/04/13 00:07:41;;;;;;;6.67;4.83;;;;;;;;;;5378453;26;20223;-78
2024/04/13 00:10:07;;;;;;;8.83;4.80;;;;;;;;;;5408620;26;20711;-78
2024/04/13 00:12:34;;;;;;;6.43;4.30;;;;;;;;;;5407263;26;20838;-78
2024/04/13 00:15:00;;;;;;;7.83;5.20;;;;;;;;;;5408708;26;20653;-78
2024/04/13 00:17:26;;;;;;;7.53;4.97;;;;;;;;;;5408842;26;20223;-79
2024/04/13 00:19:52;;;;;;;9.57;4.77;;;;;;;;;;5408763;26;20331;-78
2024/04/13 00:22:18;;;;;;;6.53;4.70;;;;;;;;;;5349456;26;20657;-78
2024/04/13 00:24:45;;;;;;;6.00;5.00;;;;;;;;;;5377679;26;20253;-78
2024/04/13 00:27:11;;;;;;;5.80;4.73;;;;;;;;;;5410560;26;20629;-77
2024/04/13 00:29:37;;;;;;;6.10;4.43;;;;;;;;;;5411862;26;20269;-78
2024/04/13 00:32:08;;;;;;;6.20;4.30;;;;;;;;;;5409319;26;20224;-78
2024/04/13 00:34:34;;;;;;;6.60;4.77;;;;;;;;;;5408712;26;20283;-78
2024/04/13 00:37:00;;;;;;;7.03;4.43;;;;;;;;;;5408089;26;20227;-78
2024/04/13 00:39:26;;;;;;;5.60;4.30;;;;;;;;;;5376762;26;20215;-77
2024/04/13 00:41:54;;;;;;;5.07;3.60;;;;;;;;;;5407229;26;20266;-78
2024/04/13 00:44:20;;;;;;;7.13;4.47;;;;;;;;;;5407168;26;20227;-78
2024/04/13 00:46:47;;;;;;;4.07;3.67;;;;;;;;;;5407084;26;20218;-77
2024/04/13 00:49:14;;;;;;;4.03;3.60;;;;;;;;;;5406970;26;20554;-77
2024/04/13 00:51:44;;;;;;;7.00;4.10;;;;;;;;;;5375980;26;20226;-77
2024/04/13 00:54:14;;;;;;;5.30;3.77;;;;;;;;;;5406928;26;20231;-78
2024/04/13 00:56:40;;;;;;;5.43;4.40;;;;;;;;;;5406912;26;20272;-77
2024/04/13 00:59:06;;;;;;;4.90;3.93;;;;;;;;;;5406716;26;20218;-77
2024/04/13 01:01:33;;;;;;;5.80;4.00;;;;;;;;;;5407174;26;20285;-78
2024/04/13 01:04:00;;;;;;;7.23;4.50;;;;;;;;;;5407103;26;20314;-78
2024/04/13 01:06:28;;;;;;;7.53;4.60;;;;;;;;;;5407223;26;20231;-78
2024/04/13 01:08:54;;;;;;;4.00;3.43;;;;;;;;;;5406454;26;20262;-78
2024/04/13 01:11:20;;;;;;;5.60;4.13;;;;;;;;;;5406856;26;20248;-77
2024/04/13 01:13:47;;;;;;;6.30;4.13;;;;;;;;;;5406652;26;20230;-77
2024/04/13 01:16:14;;;;;;;5.80;4.00;;;;;;;;;;5376257;26;20252;-78
2024/04/13 01:18:41;;;;;;;4.57;3.73;;;;;;;;;;5406785;26;20264;-78
2024/04/13 01:21:09;;;;;;;5.43;3.50;;;;;;;;;;5406962;26;20221;-78
2024/04/13 01:23:38;;;;;;;5.20;3.63;;;;;;;;;;5407095;26;20242;-78
2024/04/13 01:26:07;;;;;;;4.47;3.60;;;;;;;;;;5410487;26;20214;-78
2024/04/13 01:28:34;;;;;;;5.73;3.77;;;;;;;;;;5410435;26;20251;-78
2024/04/13 01:31:00;;;;;;;4.90;3.73;;;;;;;;;;5410017;26;20601;-77
2024/04/13 01:33:26;;;;;;;5.70;3.13;;;;;;;;;;5409540;26;20290;-77
2024/04/13 01:35:57;;;;;;;5.53;3.47;;;;;;;;;;5410323;26;20214;-77
2024/04/13 01:38:23;;;;;;;5.30;4.30;;;;;;;;;;5410184;26;20214;-77
2024/04/13 01:40:49;;;;;;;5.10;3.90;;;;;;;;;;5409976;26;20264;-78
2024/04/13 01:43:15;;;;;;;5.23;4.30;;;;;;;;;;5409827;26;20527;-78
2024/04/13 01:45:44;;;;;;;5.80;3.63;;;;;;;;;;5410454;26;20472;-77
2024/04/13 01:48:10;;;;;;;4.20;3.80;;;;;;;;;;5414894;26;20721;-77
2024/04/13 01:50:37;;;;;;;5.10;3.87;;;;;;;;;;5413404;26;20219;-78
2024/04/13 01:53:03;;;;;;;5.13;3.53;;;;;;;;;;5412530;26;20268;-78
2024/04/13 01:55:29;;;;;;;4.47;3.80;;;;;;;;;;5413371;26;20552;-78
2024/04/13 01:57:55;;;;;;;4.30;3.70;;;;;;;;;;5413808;26;20264;-78
2024/04/13 02:00:21;;;;;;;5.63;3.50;;;;;;;;;;5413843;26;20226;-78
2024/04/13 02:02:47;;;;;;;5.77;3.83;;;;;;;;;;5414113;26;20591;-78
2024/04/13 02:05:13;;;;;;;4.90;3.63;;;;;;;;;;5413909;26;20246;-78
2024/04/13 02:07:40;;;;;;;6.00;3.40;;;;;;;;;;5413507;26;20260;-78
2024/04/13 02:10:06;;;;;;;7.40;3.63;;;;;;;;;;5413832;26;20286;-78
2024/04/13 02:12:32;;;;;;;4.23;3.27;;;;;;;;;;5413641;26;20214;-78
2024/04/13 02:14:58;;;;;;;5.40;3.70;;;;;;;;;;5413707;26;20226;-78
2024/04/13 02:17:24;;;;;;;4.70;3.70;;;;;;;;;;5414356;26;20330;-78
2024/04/13 02:19:50;;;;;;;5.67;3.67;;;;;;;;;;5413120;26;20226;-78
2024/04/13 02:22:18;;;;;;;8.70;3.67;;;;;;;;;;5413705;26;20215;-77
2024/04/13 02:24:44;;;;;;;5.03;3.70;;;;;;;;;;5413822;26;20242;-78
2024/04/13 02:27:11;;;;;;;4.07;3.60;;;;;;;;;;5415147;26;20728;-77
2024/04/13 02:29:43;;;;;;;4.07;3.67;;;;;;;;;;5414472;26;20214;-78
2024/04/13 02:32:09;;;;;;;6.80;3.80;;;;;;;;;;5415418;26;20705;-79
2024/04/13 02:34:35;;;;;;;4.33;3.87;;;;;;;;;;5413631;26;20230;-79
2024/04/13 02:37:07;;;;;;;4.10;3.50;;;;;;;;;;5414415;26;20747;-79
2024/04/13 02:39:33;;;;;;;4.20;3.80;;;;;;;;;;5413213;26;20309;-77
2024/04/13 02:41:59;;;;;;;6.30;3.90;;;;;;;;;;5411768;26;20265;-79
2024/04/13 02:44:25;;;;;;;6.77;4.10;;;;;;;;;;5415072;26;20273;-78
2024/04/13 02:46:52;;;;;;;5.47;3.17;;;;;;;;;;5411198;26;20563;-78
2024/04/13 02:49:18;;;;;;;4.07;3.63;;;;;;;;;;5409234;26;20219;-76
2024/04/13 02:51:44;;;;;;;4.03;3.63;;;;;;;;;;5409955;26;20233;-77
2024/04/13 02:54:10;;;;;;;6.03;3.73;;;;;;;;;;5408624;26;20256;-77
2024/04/13 02:56:36;;;;;;;4.17;3.33;;;;;;;;;;5408801;26;20272;-77
2024/04/13 02:59:02;;;;;;;5.77;3.80;;;;;;;;;;5377887;26;20693;-77
2024/04/13 03:01:28;;;;;;;4.37;3.60;;;;;;;;;;5408833;26;20217;-78
2024/04/13 03:03:54;;;;;;;6.20;4.00;;;;;;;;;;5408883;26;20242;-77
2024/04/13 03:06:20;;;;;;;4.30;3.90;;;;;;;;;;5408716;26;20626;-77
2024/04/13 03:08:48;;;;;;;4.97;3.40;;;;;;;;;;5377447;26;20293;-77
2024/04/13 03:11:14;;;;;;;4.40;3.57;;;;;;;;;;5408400;26;20214;-77
2024/04/13 03:13:41;;;;;;;4.97;4.07;;;;;;;;;;5408297;26;20252;-77
2024/04/13 03:16:09;;;;;;;5.37;4.33;;;;;;;;;;5408373;26;20637;-77
2024/04/13 03:18:38;;;;;;;7.40;4.37;;;;;;;;;;5408126;26;20264;-76
2024/04/13 03:21:04;;;;;;;5.87;3.87;;;;;;;;;;5408449;26;20310;-77
2024/04/13 03:23:32;;;;;;;5.83;3.93;;;;;;;;;;5408372;26;20837;-77
2024/04/13 03:25:58;;;;;;;5.10;4.13;;;;;;;;;;5415995;21;20266;-66
2024/04/13 03:28:31;;;;;;;5.03;3.90;;;;;;;;;;5372731;26;20606;-67
2024/04/13 03:30:57;;;;;;;6.50;3.80;;;;;;;;;;5387582;21;20355;-76
2024/04/13 03:33:23;;;;;;;4.60;3.70;;;;;;;;;;5382040;21;20754;-66
2024/04/13 03:35:49;;;;;;;4.00;3.60;;;;;;;;;;5407817;26;20326;-66
2024/04/13 03:38:16;;;;;;;4.10;3.67;;;;;;;;;;5415099;21;20263;-77
2024/04/13 03:40:44;;;;;;;7.33;4.10;;;;;;;;;;5379167;26;20223;-78
2024/04/13 03:43:11;;;;;;;6.20;4.10;;;;;;;;;;5374893;26;20215;-78
2024/04/13 03:45:37;;;;;;;8.53;4.60;;;;;;;;;;5340274;26;20220;-78
2024/04/13 03:48:03;;;;;;;5.53;3.90;;;;;;;;;;5340177;26;20575;-78
2024/04/13 03:50:30;;;;;;;5.17;4.03;;;;;;;;;;5339817;26;20218;-78
2024/04/13 03:52:57;;;;;;;5.00;3.77;;;;;;;;;;5339675;26;20212;-78
2024/04/13 03:55:23;;;;;;;5.23;3.90;;;;;;;;;;5310694;26;20310;-78
2024/04/13 03:57:49;;;;;;;4.33;3.80;;;;;;;;;;5342394;26;20216;-77
2024/04/13 04:00:16;;;;;;;4.33;3.90;;;;;;;;;;5310142;26;20312;-77
2024/04/13 04:02:42;;;;;;;4.50;3.73;;;;;;;;;;5337582;26;20328;-77
2024/04/13 04:05:08;;;;;;;4.97;4.00;;;;;;;;;;5337417;26;20228;-77
2024/04/13 04:07:34;;;;;;;4.27;3.87;;;;;;;;;;5307171;26;20250;-77
2024/04/13 04:10:00;;;;;;;5.10;4.27;;;;;;;;;;5307009;26;20580;-77
2024/04/13 04:12:26;;;;;;;7.20;4.20;;;;;;;;;;5337374;26;20211;-77
2024/04/13 04:14:53;;;;;;;5.37;4.57;;;;;;;;;;5337299;26;20234;-77
2024/04/13 04:17:19;;;;;;;5.97;3.93;;;;;;;;;;5337236;26;20212;-77
2024/04/13 04:19:45;;;;;;;4.73;4.00;;;;;;;;;;5337700;26;20682;-77
2024/04/13 04:22:11;;;;;;;7.33;4.27;;;;;;;;;;5337367;26;20216;-77
2024/04/13 04:24:38;;;;;;;6.03;4.57;;;;;;;;;;5337839;26;20733;-78
2024/04/13 04:27:05;;;;;;;5.87;4.60;;;;;;;;;;5337409;26;20282;-77
2024/04/13 04:29:31;;;;;;;6.33;4.40;;;;;;;;;;5337102;26;20232;-78
2024/04/13 04:31:57;;;;;;;6.90;4.10;;;;;;;;;;5336937;26;20308;-77
2024/04/13 04:34:23;;;;;;;4.57;4.10;;;;;;;;;;5337154;26;20603;-77
2024/04/13 04:36:51;;;;;;;6.03;4.57;;;;;;;;;;5337601;26;20279;-77
2024/04/13 04:39:17;;;;;;;5.63;3.97;;;;;;;;;;5336951;26;20227;-78
2024/04/13 04:41:43;;;;;;;6.00;4.43;;;;;;;;;;5341926;26;20243;-78
2024/04/13 04:44:10;;;;;;;7.33;4.13;;;;;;;;;;5342641;26;20283;-78
2024/04/13 04:46:36;;;;;;;4.53;3.97;;;;;;;;;;5342078;26;20218;-78
2024/04/13 04:49:04;;;;;;;5.67;4.07;;;;;;;;;;5310435;26;20228;-78
2024/04/13 04:51:30;;;;;;;6.70;4.53;;;;;;;;;;5341416;26;20347;-78
2024/04/13 04:53:56;;;;;;;5.63;4.70;;;;;;;;;;5310896;26;20240;-78
2024/04/13 04:56:23;;;;;;;6.33;4.60;;;;;;;;;;5341450;26;20224;-78
2024/04/13 04:58:51;;;;;;;6.27;4.53;;;;;;;;;;5341820;26;20647;-78
2024/04/13 05:01:17;;;;;;;5.70;4.80;;;;;;;;;;5344403;26;20604;-78
2024/04/13 05:03:43;;;;;;;5.13;4.23;;;;;;;;;;5344119;26;20231;-78
2024/04/13 05:06:09;;;;;;;5.80;4.03;;;;;;;;;;5345619;26;20215;-77
2024/04/13 05:08:35;;;;;;;4.90;4.20;;;;;;;;;;5340692;26;20219;-79
2024/04/13 05:11:01;;;;;;;4.47;3.60;;;;;;;;;;5343441;26;20228;-80
2024/04/13 05:13:29;;;;;;;5.30;4.77;;;;;;;;;;5311154;26;20231;-78
2024/04/13 05:15:56;;;;;;;5.67;4.37;;;;;;;;;;5342488;26;20262;-78
2024/04/13 05:18:47;;;;;;;6.07;4.23;;;;;;;;;;5341425;26;20215;-77
2024/04/13 05:21:13;;;;;;;8.97;4.97;;;;;;;;;;5341256;26;20283;-79
2024/04/13 05:23:39;;;;;;;6.90;4.47;;;;;;;;;;5341624;26;20266;-78
2024/04/13 05:26:05;;;;;;;5.07;4.00;;;;;;;;;;5341191;26;20223;-78
2024/04/13 05:28:31;;;;;;;5.67;4.87;;;;;;;;;;5341615;26;20271;-77
2024/04/13 05:30:57;;;;;;;6.37;4.63;;;;;;;;;;5339580;26;20216;-78
2024/04/13 05:33:27;;;;;;;5.23;4.47;;;;;;;;;;5341939;26;20225;-79
2024/04/13 05:35:55;;;;;;;5.43;4.57;;;;;;;;;;5358840;21;20282;-68
2024/04/13 05:38:22;;;;;;;4.43;3.90;;;;;;;;;;5388263;21;20305;-79
2024/04/13 05:40:49;;;;;;;5.83;4.63;;;;;;;;;;5375150;26;20622;-78
2024/04/13 05:43:16;;;;;;;4.63;4.13;;;;;;;;;;5375190;26;20218;-78
2024/04/13 05:45:43;;;;;;;6.87;5.10;;;;;;;;;;5374849;26;20332;-77
2024/04/13 05:48:10;;;;;;;9.30;5.57;;;;;;;;;;5344240;26;20253;-78
2024/04/13 05:50:36;;;;;;;6.17;5.13;;;;;;;;;;5344226;26;20228;-78
2024/04/13 05:53:01;;;;;;;4.83;4.20;;;;;;;;;;5376406;26;20365;-76
2024/04/13 05:55:27;;;;;;;7.67;5.23;;;;;;;;;;5378940;26;20234;-77
2024/04/13 05:57:53;;;;;;;5.63;4.80;;;;;;;;;;5377535;26;20219;-78
2024/04/13 06:00:19;;;;;;;7.87;5.27;;;;;;;;;;5375163;26;20266;-78
2024/04/13 06:05:42;;;;;;;10.33;7.10;;;;;;;;;;5448773;21;20848;-67
2024/04/13 06:08:09;;;;;;;7.73;5.80;;;;;;;;;;5444960;26;20539;-67
2024/04/13 06:10:44;;;;;;;10.07;6.40;;;;;;;;;;5472173;21;20285;-78
2024/04/13 06:13:10;;;;;;;9.00;6.53;;;;;;;;;;5483478;26;20559;-78
2024/04/13 06:15:39;;;;;;;8.73;6.20;;;;;;;;;;5445953;26;20286;-78
2024/04/13 06:18:06;;;;;;;7.47;5.33;;;;;;;;;;5445951;26;20278;-77
2024/04/13 06:20:32;;;;;;;6.73;5.43;;;;;;;;;;5446150;26;20263;-77
2024/04/13 06:22:59;;;;;;;7.70;6.33;;;;;;;;;;5445890;26;20224;-78
2024/04/13 06:25:25;;;;;;;7.67;6.87;;;;;;;;;;5448400;26;20239;-78
2024/04/13 06:27:51;;;;;;;7.30;4.73;;;;;;;;;;5449856;26;20617;-79
2024/04/13 06:30:17;;;;;;;6.07;5.17;;;;;;;;;;5449583;26;20228;-78
2024/04/13 06:32:43;;;;;;;8.13;5.90;;;;;;;;;;5449654;26;20266;-79
2024/04/13 06:35:09;;;;;;;10.10;5.33;;;;;;;;;;5449576;26;20643;-79
2024/04/13 06:37:36;;;;;;;7.20;5.27;;;;;;;;;;5449705;26;20291;-79
2024/04/13 06:43:06;;;;;;;6.70;5.00;;;;;;;;;;5446092;26;20308;-77
2024/04/13 06:45:35;;;;;;;4.83;3.97;;;;;;;;;;5444319;26;20229;-77
2024/04/13 06:48:01;;;;;;;5.00;4.03;;;;;;;;;;5444402;26;20742;-77
2024/04/13 06:50:27;;;;;;;5.97;5.00;;;;;;;;;;5444862;26;20228;-78
2024/04/13 06:52:53;;;;;;;5.97;4.53;;;;;;;;;;5447074;26;20224;-79
2024/04/13 06:55:19;;;;;;;5.17;3.63;;;;;;;;;;5450619;26;20274;-79
2024/04/13 06:57:45;;;;;;;9.10;4.80;;;;;;;;;;5450408;26;20710;-79
2024/04/13 07:00:11;;;;;;;10.77;4.20;;;;;;;;;;5449772;26;20233;-79
2024/04/13 07:02:37;;;;;;;6.07;4.30;;;;;;;;;;5448245;26;20284;-78
2024/04/13 07:05:03;;;;;;;6.20;5.00;;;;;;;;;;5447522;26;20279;-78
2024/04/13 07:07:29;;;;;;;6.23;4.53;;;;;;;;;;5447062;26;20216;-78
2024/04/13 07:09:57;;;;;;;5.07;4.07;;;;;;;;;;5448796;26;20221;-79
2024/04/13 07:12:23;;;;;;;6.03;4.53;;;;;;;;;;5449659;26;20228;-78
2024/04/13 07:14:49;;;;;;;4.07;3.60;;;;;;;;;;5417495;26;20349;-79
2024/04/13 07:17:15;;;;;;;6.97;4.60;;;;;;;;;;5417617;26;20342;-79
2024/04/13 07:19:41;;;;;;;8.47;4.73;;;;;;;;;;5450252;26;20233;-78
2024/04/13 07:22:07;;;;;;;6.17;4.70;;;;;;;;;;5446682;26;20221;-77
2024/04/13 07:24:33;;;;;;;4.70;3.43;;;;;;;;;;5444143;26;20242;-77
2024/04/13 07:26:59;;;;;;;5.23;4.00;;;;;;;;;;5444637;26;20283;-78
2024/04/13 07:29:25;;;;;;;6.37;4.83;;;;;;;;;;5445681;26;20221;-78
2024/04/13 07:31:51;;;;;;;5.80;3.33;;;;;;;;;;5458345;21;20269;-66
2024/04/13 07:34:18;;;;;;;4.50;3.23;;;;;;;;;;5443075;26;20261;-67
2024/04/13 07:36:44;;;;;;;5.20;4.37;;;;;;;;;;5407772;26;20232;-66
2024/04/13 07:39:11;;;;;;;5.37;4.33;;;;;;;;;;5407338;26;20256;-66
2024/04/13 07:41:37;;;;;;;4.23;3.70;;;;;;;;;;5407439;26;20290;-66
2024/04/13 07:44:03;;;;;;;5.77;4.23;;;;;;;;;;5407219;26;20773;-67
2024/04/13 07:46:29;;;;;;;5.60;3.93;;;;;;;;;;5482371;21;20266;-76
2024/04/13 07:48:55;;;;;;;4.57;3.70;;;;;;;;;;5479620;26;20223;-76
2024/04/13 07:51:21;;;;;;;3.87;3.53;;;;;;;;;;5479308;25;20258;-76
2024/04/13 07:53:47;;;;;;;4.43;4.03;;;;;;;;;;5471460;26;20277;-76
2024/04/13 07:56:13;;;;;;;5.83;4.17;;;;;;;;;;5443081;26;20536;-76
2024/04/13 07:58:40;;;;;;;5.13;4.00;;;;;;;;;;5442946;26;20270;-76
2024/04/13 08:01:06;;;;;;;4.53;3.70;;;;;;;;;;5443067;26;20217;-76
2024/04/13 08:03:32;;;;;;;9.07;4.00;;;;;;;;;;5442950;26;20703;-77
2024/04/13 08:05:58;;;;;;;4.43;3.83;;;;;;;;;;5442882;26;20232;-76
2024/04/13 08:08:25;;;;;;;7.60;4.10;;;;;;;;;;5442961;26;20699;-76
2024/04/13 08:10:51;;;;;;;4.40;3.83;;;;;;;;;;5441566;26;20268;-75
2024/04/13 08:13:17;;;;;;;6.60;3.87;;;;;;;;;;5442563;26;20561;-76
2024/04/13 08:15:44;;;;;;;6.33;4.23;;;;;;;;;;5442985;26;20260;-75
2024/04/13 08:18:10;;;;;;;5.67;3.70;;;;;;;;;;5442804;26;20820;-76
2024/04/13 08:20:36;;;;;;;8.00;4.67;;;;;;;;;;5442819;26;20594;-76
2024/04/13 08:23:03;;;;;;;5.43;3.70;;;;;;;;;;5442480;26;20220;-76
2024/04/13 08:25:29;;;;;;;6.33;4.00;;;;;;;;;;5442362;26;20338;-76
2024/04/13 08:27:55;;;;;;;4.40;3.63;;;;;;;;;;5442482;26;20227;-76
2024/04/13 08:30:22;;;;;;;8.10;4.20;;;;;;;;;;5442442;26;20220;-76
2024/04/13 08:32:49;;;;;;;3.93;3.30;;;;;;;;;;5441677;26;20237;-76
2024/04/13 08:35:15;;;;;;;3.83;2.87;;;;;;;;;;5442005;26;20235;-76
2024/04/13 08:37:41;;;;;;;3.93;2.73;;;;;;;;;;5442535;26;20219;-76
2024/04/13 08:40:11;;;;;;;3.43;2.83;;;;;;;;;;5442330;26;20291;-76
2024/04/13 08:42:39;;;;;;;4.07;3.13;;;;;;;;;;5442380;26;20275;-75
2024/04/13 08:45:09;;;;;;;6.30;3.33;;;;;;;;;;5442325;26;20236;-76
2024/04/13 08:47:36;;;;;;;4.90;3.20;;;;;;;;;;5442141;26;20217;-76
2024/04/13 08:50:04;;;;;;;4.63;2.67;;;;;;;;;;5440366;26;20225;-76
2024/04/13 08:52:32;;;;;;;2.93;2.63;;;;;;;;;;5442054;26;20263;-75
2024/04/13 08:54:59;;;;;;;4.20;2.80;;;;;;;;;;5442297;26;20263;-75
2024/04/13 08:57:25;;;;;;;3.00;2.53;;;;;;;;;;5442371;26;20246;-75
2024/04/13 08:59:55;;;;;;;8.07;2.17;;;;;;;;;;5441869;26;20250;-75
2024/04/13 09:02:22;;;;;;;3.10;2.20;;;;;;;;;;5441927;26;20232;-75
2024/04/13 09:04:52;;;;;;;4.15;2.05;;;;;;;;;;5442388;26;20228;-76
2024/04/13 09:07:21;;;;;;;4.00;2.15;;;;;;;;;;5441792;26;20262;-74
2024/04/13 09:09:50;;;;;;;3.45;1.95;;;;;;;;;;5441753;26;20324;-74
2024/04/13 09:12:16;;;;;;;3.20;2.20;;;;;;;;;;5441819;26;20225;-76
2024/04/13 09:14:43;;;;;;;4.75;1.90;;;;;;;;;;5441533;26;20286;-74
2024/04/13 09:17:09;;;;;;;3.35;2.10;;;;;;;;;;5441853;26;20259;-75
2024/04/13 09:19:35;;;;;;;2.33;1.95;;;;;;;;;;5439495;26;20242;-74
2024/04/13 09:22:01;;;;;;;4.43;2.35;;;;;;;;;;5441480;26;20229;-75
2024/04/13 09:24:29;;;;;;;3.53;1.70;;;;;;;;;;5441720;26;20269;-75
2024/04/13 09:26:55;;;;;;;4.45;2.20;;;;;;;;;;5441410;26;20216;-75
2024/04/13 09:29:25;;;;;;;6.35;3.50;;;;;;;;;;5441565;26;20220;-74
2024/04/13 09:31:51;;;;;;;4.65;2.75;;;;;;;;;;5442317;26;20691;-75
2024/04/13 09:34:17;;;;;;;5.68;2.45;;;;;;;;;;5441521;26;20229;-75
2024/04/13 09:36:43;;;;;;;2.95;2.60;;;;;;;;;;5441387;26;20589;-75
2024/04/13 09:39:19;;;;;;;6.85;2.42;;;;;;;;;;5441367;26;20703;-76
2024/04/13 09:41:45;;;;;;;2.90;2.10;;;;;;;;;;5441404;26;20263;-75
2024/04/13 09:44:11;;;;;;;3.88;2.03;;;;;;;;;;5441340;26;20229;-76
2024/04/13 09:46:37;;;;;;;2.00;1.80;;;;;;;;;;5444865;26;20742;-75
2024/04/13 09:49:03;;;;;;;5.05;2.40;;;;;;;;;;5444750;26;20228;-75
2024/04/13 09:51:29;;;;;;;3.10;2.13;;;;;;;;;;5446357;26;20212;-78
2024/04/13 09:53:55;;;;;;;3.40;1.85;;;;;;;;;;5446505;26;20224;-78
2024/04/13 09:56:21;;;;;;;1.70;1.60;;;;;;;;;;5446651;26;20216;-77
2024/04/13 09:58:49;;;;;;;4.22;1.50;;;;;;;;;;5447022;26;20217;-77
2024/04/13 10:01:15;;;;;;;3.03;1.80;;;;;;;;;;5445723;26;20220;-77
2024/04/13 10:03:41;;;;;;;2.63;1.77;;;;;;;;;;5446615;26;20237;-78
2024/04/13 10:06:11;;;;;;;2.95;2.20;;;;;;;;;;5446146;26;20282;-78
2024/04/13 10:08:39;;;;;;;2.22;2.00;;;;;;;;;;5445954;26;20290;-77
2024/04/13 10:11:06;;;;;;;2.38;2.17;;;;;;;;;;5446844;26;20560;-78
2024/04/13 10:13:34;;;;;;;2.78;1.92;;;;;;;;;;5447041;26;20630;-78
2024/04/13 10:16:01;;;;;;;3.70;2.20;;;;;;;;;;5446334;26;20229;-77
2024/04/13 10:18:27;;;;;;;2.17;1.80;;;;;;;;;;5445415;26;20301;-77
2024/04/13 10:20:56;;;;;;;2.25;1.67;;;;;;;;;;5445138;26;20224;-76
2024/04/13 10:23:22;;;;;;;2.45;1.83;;;;;;;;;;5445399;26;20645;-76
2024/04/13 10:25:56;;;;;;;2.25;1.70;;;;;;;;;;5445269;26;20631;-76
2024/04/13 10:28:23;;;;;;;2.80;2.03;;;;;;;;;;5445061;26;20217;-76
2024/04/13 10:30:53;;;;;;;2.40;1.77;;;;;;;;;;5444121;26;20259;-77
2024/04/13 10:33:22;;;;;;;2.17;1.80;;;;;;;;;;5443692;26;20793;-77
2024/04/13 10:35:55;;;;;;;1.90;1.70;;;;;;;;;;5444291;26;20217;-77
2024/04/13 10:38:21;;;;;;;2.08;1.58;;;;;;;;;;5445151;26;20308;-77
2024/04/13 10:40:47;;;;;;;3.33;2.00;;;;;;;;;;5444474;26;20212;-77
2024/04/13 10:43:20;;;;;;;2.47;1.58;;;;;;;;;;5444260;26;20224;-76
2024/04/13 10:45:56;;;;;;;2.45;1.83;;;;;;;;;;5443862;26;20236;-77
2024/04/13 10:48:22;;;;;;;2.15;1.67;;;;;;;;;;5445793;26;20220;-78
2024/04/13 10:50:49;;;;;;;3.17;1.55;;;;;;;;;;5443847;26;20221;-77
2024/04/13 10:53:15;;;;;;;2.33;1.55;;;;;;;;;;5444712;26;20269;-77
2024/04/13 10:55:41;;;;;;;2.42;1.90;;;;;;;;;;5443782;26;20259;-77
2024/04/13 10:58:08;;;;;;;2.08;1.60;;;;;;;;;;5443300;26;20220;-77
2024/04/13 11:00:34;;;;;;;5.25;2.03;;;;;;;;;;5443604;26;20213;-77
2024/04/13 11:03:00;;;;;;;1.98;1.70;;;;;;;;;;5443703;26;20276;-78
2024/04/13 11:05:27;;;;;;;3.63;1.90;;;;;;;;;;5443673;26;20591;-77
2024/04/13 11:07:53;;;;;;;1.70;1.52;;;;;;;;;;5444196;26;20228;-77
2024/04/13 11:10:22;;;;;;;1.85;1.70;;;;;;;;;;5444268;26;20263;-77
2024/04/13 11:12:49;;;;;;;2.47;1.70;;;;;;;;;;5444343;26;20259;-77
2024/04/13 11:15:15;;;;;;;2.38;1.77;;;;;;;;;;5444691;26;20275;-77
2024/04/13 11:17:42;;;;;;;2.05;1.85;;;;;;;;;;5444337;26;20212;-77
2024/04/13 11:20:10;;;;;;;2.85;1.70;;;;;;;;;;5444542;26;20216;-78
2024/04/13 11:22:36;;;;;;;2.55;2.20;;;;;;;;;;5444210;26;20224;-76
2024/04/13 11:25:02;;;;;;;3.22;1.85;;;;;;;;;;5443596;26;20284;-76
2024/04/13 11:27:29;;;;;;;2.20;1.63;;;;;;;;;;5442036;26;20239;-77
2024/04/13 11:29:55;;;;;;;1.63;1.50;;;;;;;;;;5444002;26;20216;-76
2024/04/13 11:32:21;;;;;;;3.28;1.60;;;;;;;;;;5444429;26;20220;-76
2024/04/13 11:34:47;;;;;;;2.13;1.48;;;;;;;;;;5443721;26;20231;-76
2024/04/13 11:37:13;;;;;;;3.38;1.85;;;;;;;;;;5444286;26;20586;-77
2024/04/13 11:39:40;;;;;;;2.55;1.95;;;;;;;;;;5444052;26;20431;-77
2024/04/13 11:42:07;;;;;;;2.28;1.80;;;;;;;;;;5441910;26;20299;-76
2024/04/13 11:44:37;;;;;;;1.77;1.58;;;;;;;;;;5443813;26;20291;-76
2024/04/13 11:47:03;;;;;;;1.55;1.40;;;;;;;;;;5443727;26;20216;-76
2024/04/13 11:49:29;;;;;;;2.65;1.77;;;;;;;;;;5444545;26;20215;-77
2024/04/13 11:51:55;;;;;;;2.60;1.80;;;;;;;;;;5444312;26;20259;-77
2024/04/13 11:54:24;;;;;;;2.58;1.60;;;;;;;;;;5445137;26;20236;-77
2024/04/13 11:56:50;;;;;;;3.53;1.63;;;;;;;;;;5443760;26;20216;-77
2024/04/13 11:59:16;;;;;;;2.15;1.80;;;;;;;;;;5443601;26;20547;-77
2024/04/13 12:01:42;;;;;;;1.65;1.55;;;;;;;;;;5443722;26;20698;-77
2024/04/13 12:04:08;;;;;;;1.70;1.60;;;;;;;;;;5443591;26;20285;-77
2024/04/13 12:06:34;;;;;;;3.15;1.77;;;;;;;;;;5444150;26;20746;-78
2024/04/13 12:09:01;;;;;;;4.13;1.60;;;;;;;;;;5442323;26;20223;-77
2024/04/13 12:11:30;;;;;;;2.05;1.52;;;;;;;;;;5444245;26;20216;-78
2024/04/13 12:14:00;;;;;;;1.73;1.63;;;;;;;;;;5451843;26;20817;-83
2024/04/13 12:16:26;;;;;;;2.17;1.80;;;;;;;;;;5448721;26;20262;-80
2024/04/13 12:18:52;;;;;;;2.33;1.38;;;;;;;;;;5449564;26;20310;-81
2024/04/13 12:21:18;;;;;;;1.95;1.60;;;;;;;;;;5449855;26;20228;-80
2024/04/13 12:23:44;;;;;;;1.58;1.48;;;;;;;;;;5449660;26;20316;-79
2024/04/13 12:26:13;;;;;;;2.70;1.60;;;;;;;;;;5444040;26;20702;-76
2024/04/13 12:28:40;;;;;;;1.70;1.60;;;;;;;;;;5443321;26;20216;-77
2024/04/13 12:31:06;;;;;;;2.80;1.63;;;;;;;;;;5447087;26;20289;-75
2024/04/13 12:33:32;;;;;;;2.20;1.80;;;;;;;;;;5445851;26;20256;-76
2024/04/13 12:35:58;;;;;;;1.85;1.70;;;;;;;;;;5447752;26;20710;-78
2024/04/13 12:38:28;;;;;;;2.15;1.60;;;;;;;;;;5447971;26;20351;-76
2024/04/13 12:40:54;;;;;;;2.20;1.80;;;;;;;;;;5446688;26;20564;-76
2024/04/13 12:43:20;;;;;;;2.83;1.60;;;;;;;;;;5443674;26;20223;-77
2024/04/13 12:45:46;;;;;;;5.63;1.90;;;;;;;;;;5442700;26;20224;-76
2024/04/13 12:48:13;;;;;;;1.92;1.60;;;;;;;;;;5442347;26;20726;-76
2024/04/13 12:50:39;;;;;;;3.40;1.80;;;;;;;;;;5443718;26;20228;-76
2024/04/13 12:53:05;;;;;;;1.73;1.63;;;;;;;;;;5442187;26;20654;-76
2024/04/13 12:55:31;;;;;;;2.03;1.63;;;;;;;;;;5442201;26;20263;-76
2024/04/13 12:57:57;;;;;;;3.08;1.77;;;;;;;;;;5442186;26;20316;-76
2024/04/13 13:00:23;;;;;;;3.15;1.60;;;;;;;;;;5441955;26;20250;-75
2024/04/13 13:02:49;;;;;;;2.50;1.85;;;;;;;;;;5442230;26;20220;-75
2024/04/13 13:05:15;;;;;;;2.72;1.95;;;;;;;;;;5441690;26;20228;-75
2024/04/13 13:07:42;;;;;;;2.63;2.05;;;;;;;;;;5442848;26;20228;-76
2024/04/13 13:10:08;;;;;;;1.73;1.58;;;;;;;;;;5440313;26;20315;-76
2024/04/13 13:12:34;;;;;;;2.10;1.63;;;;;;;;;;5441885;26;20320;-76
2024/04/13 13:15:00;;;;;;;1.98;1.35;;;;;;;;;;5442056;26;20230;-76
2024/04/13 13:17:26;;;;;;;2.00;1.80;;;;;;;;;;5441913;26;20272;-75
2024/04/13 13:19:52;;;;;;;3.38;1.80;;;;;;;;;;5443036;26;20224;-76
2024/04/13 13:22:22;;;;;;;2.05;1.60;;;;;;;;;;5445318;26;20271;-75
2024/04/13 13:24:48;;;;;;;1.90;1.65;;;;;;;;;;5445156;26;20256;-75
2024/04/13 13:27:14;;;;;;;1.80;1.70;;;;;;;;;;5445176;26;20224;-75
2024/04/13 13:29:40;;;;;;;2.00;1.80;;;;;;;;;;5445312;26;20327;-75
2024/04/13 13:32:06;;;;;;;2.75;1.77;;;;;;;;;;5471004;21;20355;-77
2024/04/13 13:34:32;;;;;;;2.42;1.63;;;;;;;;;;5425664;26;20237;-77
2024/04/13 13:36:58;;;;;;;3.67;1.85;;;;;;;;;;5409682;26;20325;-77
2024/04/13 13:39:24;;;;;;;2.50;2.08;;;;;;;;;;5413191;26;20306;-80
2024/04/13 13:41:50;;;;;;;1.73;1.63;;;;;;;;;;5415705;26;20221;-80
2024/04/13 13:44:16;;;;;;;1.70;1.60;;;;;;;;;;5356036;26;20234;-81
2024/04/13 13:46:42;;;;;;;3.08;1.70;;;;;;;;;;5415570;26;20264;-80
2024/04/13 13:49:08;;;;;;;2.97;1.83;;;;;;;;;;5414653;26;20213;-80
2024/04/13 13:51:35;;;;;;;2.15;1.60;;;;;;;;;;5415518;26;20216;-79
2024/04/13 13:54:01;;;;;;;2.60;1.70;;;;;;;;;;5415060;26;20280;-81
2024/04/13 13:56:27;;;;;;;4.05;1.63;;;;;;;;;;5384406;26;20225;-80
2024/04/13 13:58:53;;;;;;;3.53;1.42;;;;;;;;;;5416496;26;20264;-81
2024/04/13 14:01:19;;;;;;;2.03;1.83;;;;;;;;;;5415219;26;20266;-78
2024/04/13 14:03:46;;;;;;;2.25;1.80;;;;;;;;;;5409524;26;20228;-78
2024/04/13 14:06:14;;;;;;;3.10;1.85;;;;;;;;;;5412522;26;20217;-79
2024/04/13 14:08:40;;;;;;;1.92;1.77;;;;;;;;;;5415890;26;20264;-77
2024/04/13 14:11:06;;;;;;;3.28;1.67;;;;;;;;;;5409607;26;20224;-77
2024/04/13 14:13:32;;;;;;;1.65;1.52;;;;;;;;;;5409012;26;20617;-77
2024/04/13 14:15:58;;;;;;;1.80;1.70;;;;;;;;;;5409043;26;20221;-77
2024/04/13 14:18:24;;;;;;;1.95;1.75;;;;;;;;;;5409611;26;20182;-76
2024/04/13 14:20:51;;;;;;;1.88;1.63;;;;;;;;;;5409482;26;20707;-77
2024/04/13 14:23:17;;;;;;;1.95;1.85;;;;;;;;;;5409528;26;20225;-77
2024/04/13 14:25:43;;;;;;;1.52;1.42;;;;;;;;;;5410228;26;20225;-77
2024/04/13 14:28:09;;;;;;;3.40;2.10;;;;;;;;;;5410216;26;20264;-77
2024/04/13 14:30:35;;;;;;;4.53;1.67;;;;;;;;;;5409800;26;20614;-77
2024/04/13 14:33:01;;;;;;;2.58;1.80;;;;;;;;;;5409296;26;20329;-77
2024/04/13 14:35:27;;;;;;;3.13;1.60;;;;;;;;;;5408934;26;20579;-77
2024/04/13 14:37:54;;;;;;;2.65;2.00;;;;;;;;;;5409201;26;20217;-77
2024/04/13 14:40:20;;;;;;;4.53;1.90;;;;;;;;;;5412643;26;20278;-78
2024/04/13 14:42:46;;;;;;;2.65;1.67;;;;;;;;;;5416838;26;20298;-79
2024/04/13 14:45:12;;;;;;;2.50;1.70;;;;;;;;;;5415997;26;20687;-77